createdAt,value
2018-04-16T00:00:01.320Z,43.76
2018-04-16T00:01:01.297Z,43.79
2018-04-16T00:02:01.421Z,43.79
2018-04-16T00:03:01.354Z,43.77
2018-04-16T00:04:01.280Z,43.77
2018-04-16T00:05:01.321Z,43.79
2018-04-16T00:06:01.372Z,43.73
2018-04-16T00:07:01.301Z,43.77
2018-04-16T00:08:01.237Z,43.8
2018-04-16T00:09:01.288Z,43.79
2018-04-16T00:10:01.281Z,43.69
2018-04-16T00:11:01.490Z,43.8
2018-04-16T00:12:01.359Z,43.88
2018-04-16T00:13:01.266Z,43.72
2018-04-16T00:14:01.211Z,43.78
2018-04-16T00:15:01.397Z,43.79
2018-04-16T00:16:01.444Z,43.77
2018-04-16T00:17:01.290Z,43.84
2018-04-16T00:18:01.512Z,43.81
2018-04-16T00:19:01.364Z,43.81
2018-04-16T00:20:01.461Z,43.8
2018-04-16T00:21:01.407Z,43.79
2018-04-16T00:22:01.464Z,43.81
2018-04-16T00:23:01.434Z,43.78
2018-04-16T00:24:01.197Z,43.76
2018-04-16T00:25:01.622Z,43.82
2018-04-16T00:26:01.437Z,43.8
2018-04-16T00:27:01.352Z,43.83
2018-04-16T00:28:01.420Z,43.79
2018-04-16T00:29:01.458Z,43.84
2018-04-16T00:30:01.443Z,43.74
2018-04-16T00:31:01.236Z,43.81
2018-04-16T00:32:01.548Z,43.82
2018-04-16T00:33:01.237Z,43.84
2018-04-16T00:34:01.419Z,43.74
2018-04-16T00:35:01.209Z,43.83
2018-04-16T00:36:01.298Z,43.81
2018-04-16T00:37:01.356Z,43.91
2018-04-16T00:38:01.204Z,43.94
2018-04-16T00:39:01.408Z,43.83
2018-04-16T00:40:01.265Z,43.87
2018-04-16T00:41:01.569Z,43.85
2018-04-16T00:42:01.371Z,43.82
2018-04-16T00:43:01.479Z,43.87
2018-04-16T00:44:01.265Z,43.85
2018-04-16T00:45:01.307Z,43.86
2018-04-16T00:46:01.323Z,43.81
2018-04-16T00:47:01.404Z,43.86
2018-04-16T00:48:01.385Z,43.8
2018-04-16T00:49:01.267Z,43.8
2018-04-16T00:50:01.507Z,43.82
2018-04-16T00:51:01.474Z,43.84
2018-04-16T00:52:01.295Z,43.84
2018-04-16T00:53:01.313Z,43.89
2018-04-16T00:54:01.381Z,43.86
2018-04-16T00:55:01.291Z,43.8
2018-04-16T00:56:01.350Z,43.82
2018-04-16T00:57:01.416Z,43.82
2018-04-16T00:58:01.418Z,43.71
2018-04-16T00:59:01.279Z,43.84
2018-04-16T01:00:01.371Z,43.79
2018-04-16T01:01:01.332Z,43.86
2018-04-16T01:02:01.355Z,43.93
2018-04-16T01:03:01.227Z,43.89
2018-04-16T01:04:01.561Z,43.87
2018-04-16T01:05:01.566Z,43.91
2018-04-16T01:06:01.418Z,43.88
2018-04-16T01:07:01.277Z,43.84
2018-04-16T01:08:01.245Z,43.75
2018-04-16T01:09:01.241Z,43.86
2018-04-16T01:10:01.260Z,43.84
2018-04-16T01:11:01.418Z,43.96
2018-04-16T01:12:01.438Z,43.89
2018-04-16T01:13:01.431Z,43.89
2018-04-16T01:14:01.345Z,43.97
2018-04-16T01:15:01.428Z,43.89
2018-04-16T01:16:01.397Z,43.89
2018-04-16T01:17:01.279Z,43.95
2018-04-16T01:18:01.300Z,43.92
2018-04-16T01:19:01.396Z,43.87
2018-04-16T01:20:01.356Z,43.98
2018-04-16T01:21:01.394Z,43.9
2018-04-16T01:22:01.461Z,43.91
2018-04-16T01:23:01.252Z,43.91
2018-04-16T01:24:01.517Z,43.91
2018-04-16T01:25:01.496Z,43.84
2018-04-16T01:26:01.348Z,44.04
2018-04-16T01:27:01.357Z,43.86
2018-04-16T01:28:01.199Z,43.87
2018-04-16T01:29:01.253Z,44
2018-04-16T01:30:01.357Z,43.83
2018-04-16T01:31:01.283Z,43.85
2018-04-16T01:32:01.299Z,43.89
2018-04-16T01:33:01.293Z,43.93
2018-04-16T01:34:01.389Z,43.84
2018-04-16T01:35:01.384Z,43.95
2018-04-16T01:36:01.529Z,43.88
2018-04-16T01:37:01.409Z,43.92
2018-04-16T01:38:01.235Z,43.98
2018-04-16T01:39:01.398Z,43.91
2018-04-16T01:40:01.278Z,43.87
2018-04-16T01:41:01.417Z,43.91
2018-04-16T01:42:01.324Z,43.89
2018-04-16T01:43:01.351Z,43.88
2018-04-16T01:44:01.392Z,43.98
2018-04-16T01:45:01.449Z,43.93
2018-04-16T01:46:01.329Z,43.95
2018-04-16T01:47:01.379Z,43.95
2018-04-16T01:48:01.293Z,43.92
2018-04-16T01:49:01.206Z,43.9
2018-04-16T01:50:01.282Z,43.97
2018-04-16T01:51:01.412Z,43.89
2018-04-16T01:52:01.304Z,43.97
2018-04-16T01:53:01.209Z,43.94
2018-04-16T01:54:01.250Z,43.91
2018-04-16T01:55:01.268Z,44.02
2018-04-16T01:56:01.388Z,43.99
2018-04-16T01:57:01.449Z,43.93
2018-04-16T01:58:01.278Z,43.93
2018-04-16T01:59:01.424Z,43.91
2018-04-16T02:00:01.630Z,43.93
2018-04-16T02:01:01.415Z,43.94
2018-04-16T02:02:01.283Z,43.94
2018-04-16T02:03:01.395Z,43.99
2018-04-16T02:04:01.245Z,43.95
2018-04-16T02:05:01.285Z,43.99
2018-04-16T02:06:01.165Z,43.94
2018-04-16T02:07:01.452Z,44.04
2018-04-16T02:08:01.413Z,44.01
2018-04-16T02:09:01.371Z,43.97
2018-04-16T02:10:01.303Z,43.97
2018-04-16T02:11:01.319Z,43.99
2018-04-16T02:12:01.353Z,43.95
2018-04-16T02:13:01.303Z,43.95
2018-04-16T02:14:01.294Z,43.97
2018-04-16T02:15:01.363Z,43.93
2018-04-16T02:16:01.381Z,43.9
2018-04-16T02:17:01.185Z,43.95
2018-04-16T02:18:02.410Z,43.94
2018-04-16T02:19:01.202Z,43.94
2018-04-16T02:20:01.384Z,44.05
2018-04-16T02:21:01.416Z,44.03
2018-04-16T02:22:01.229Z,43.97
2018-04-16T02:23:01.158Z,44.01
2018-04-16T02:24:01.248Z,43.91
2018-04-16T02:25:01.372Z,43.96
2018-04-16T02:26:01.365Z,43.93
2018-04-16T02:27:01.263Z,44.09
2018-04-16T02:28:01.435Z,43.99
2018-04-16T02:29:01.280Z,44.1
2018-04-16T02:30:01.223Z,44.03
2018-04-16T02:31:01.343Z,43.98
2018-04-16T02:32:01.344Z,44.05
2018-04-16T02:33:01.415Z,43.92
2018-04-16T02:34:01.321Z,43.95
2018-04-16T02:35:01.398Z,43.97
2018-04-16T02:36:01.266Z,43.88
2018-04-16T02:37:01.245Z,43.94
2018-04-16T02:38:01.408Z,44
2018-04-16T02:39:01.496Z,43.89
2018-04-16T02:40:01.323Z,43.91
2018-04-16T02:41:01.293Z,43.92
2018-04-16T02:42:01.402Z,44
2018-04-16T02:43:01.235Z,43.88
2018-04-16T02:44:01.393Z,43.91
2018-04-16T02:45:01.255Z,43.97
2018-04-16T02:46:01.385Z,43.94
2018-04-16T02:47:01.472Z,43.97
2018-04-16T02:48:01.357Z,43.92
2018-04-16T02:49:01.320Z,43.89
2018-04-16T02:50:01.308Z,43.95
2018-04-16T02:51:01.214Z,43.86
2018-04-16T02:52:01.364Z,43.95
2018-04-16T02:53:01.256Z,44.02
2018-04-16T02:54:01.313Z,43.95
2018-04-16T02:55:01.457Z,44.01
2018-04-16T02:56:01.147Z,43.94
2018-04-16T02:57:01.373Z,43.96
2018-04-16T02:58:01.437Z,43.86
2018-04-16T02:59:01.312Z,43.96
2018-04-16T03:00:01.380Z,43.92
2018-04-16T03:01:01.374Z,43.96
2018-04-16T03:02:01.166Z,43.98
2018-04-16T03:03:01.276Z,43.88
2018-04-16T03:04:01.249Z,43.94
2018-04-16T03:05:01.387Z,43.94
2018-04-16T03:06:01.380Z,43.87
2018-04-16T03:07:01.238Z,43.92
2018-04-16T03:08:01.211Z,43.96
2018-04-16T03:09:01.248Z,44.02
2018-04-16T03:10:01.294Z,43.97
2018-04-16T03:11:01.360Z,44.03
2018-04-16T03:12:01.394Z,43.9
2018-04-16T03:13:01.348Z,43.95
2018-04-16T03:14:01.364Z,44.01
2018-04-16T03:15:01.334Z,43.96
2018-04-16T03:16:01.339Z,44
2018-04-16T03:17:01.439Z,44.04
2018-04-16T03:18:01.212Z,43.91
2018-04-16T03:19:01.284Z,43.95
2018-04-16T03:20:01.402Z,43.96
2018-04-16T03:21:01.194Z,43.91
2018-04-16T03:22:01.252Z,43.9
2018-04-16T03:23:01.219Z,44.01
2018-04-16T03:24:01.224Z,43.99
2018-04-16T03:25:01.367Z,44.04
2018-04-16T03:26:01.367Z,44.08
2018-04-16T03:27:01.305Z,43.95
2018-04-16T03:28:01.272Z,43.98
2018-04-16T03:29:01.347Z,43.97
2018-04-16T03:30:01.405Z,43.92
2018-04-16T03:31:01.163Z,44.04
2018-04-16T03:32:01.414Z,43.87
2018-04-16T03:33:01.352Z,43.92
2018-04-16T03:34:01.439Z,43.92
2018-04-16T03:35:01.414Z,44.07
2018-04-16T03:36:01.260Z,43.96
2018-04-16T03:37:01.419Z,43.91
2018-04-16T03:38:01.383Z,43.91
2018-04-16T03:39:01.251Z,43.98
2018-04-16T03:40:01.382Z,43.97
2018-04-16T03:41:01.273Z,43.99
2018-04-16T03:42:01.216Z,43.94
2018-04-16T03:43:01.381Z,43.95
2018-04-16T03:44:01.233Z,44
2018-04-16T03:45:01.340Z,43.94
2018-04-16T03:46:01.140Z,43.92
2018-04-16T03:47:01.320Z,43.92
2018-04-16T03:48:01.415Z,43.83
2018-04-16T03:49:01.371Z,43.97
2018-04-16T03:50:01.320Z,43.99
2018-04-16T03:51:01.237Z,43.97
2018-04-16T03:52:01.359Z,43.97
2018-04-16T03:53:01.380Z,44.04
2018-04-16T03:54:01.367Z,43.98
2018-04-16T03:55:01.390Z,43.94
2018-04-16T03:56:01.262Z,43.98
2018-04-16T03:57:01.364Z,44.01
2018-04-16T03:58:01.255Z,43.9
2018-04-16T03:59:01.351Z,44.02
2018-04-16T04:00:01.431Z,43.95
2018-04-16T04:01:01.313Z,43.9
2018-04-16T04:02:01.322Z,43.92
2018-04-16T04:03:01.338Z,43.97
2018-04-16T04:04:01.184Z,43.91
2018-04-16T04:05:01.336Z,44.03
2018-04-16T04:06:01.309Z,43.94
2018-04-16T04:07:01.245Z,43.96
2018-04-16T04:08:01.197Z,43.88
2018-04-16T04:09:01.293Z,43.98
2018-04-16T04:10:01.456Z,43.95
2018-04-16T04:11:02.898Z,44.03
2018-04-16T04:12:01.304Z,44
2018-04-16T04:13:01.310Z,43.92
2018-04-16T04:14:01.220Z,43.92
2018-04-16T04:15:01.295Z,43.95
2018-04-16T04:16:01.314Z,44.04
2018-04-16T04:17:01.192Z,43.98
2018-04-16T04:18:01.453Z,43.97
2018-04-16T04:19:01.429Z,43.92
2018-04-16T04:20:01.442Z,44
2018-04-16T04:21:01.165Z,43.95
2018-04-16T04:22:01.190Z,43.95
2018-04-16T04:23:01.372Z,43.99
2018-04-16T04:24:01.140Z,44
2018-04-16T04:25:01.374Z,43.9
2018-04-16T04:26:01.290Z,43.91
2018-04-16T04:27:01.148Z,43.95
2018-04-16T04:28:01.329Z,43.93
2018-04-16T04:29:01.192Z,43.91
2018-04-16T04:30:01.219Z,43.93
2018-04-16T04:31:01.315Z,43.98
2018-04-16T04:32:01.302Z,43.93
2018-04-16T04:33:01.325Z,43.74
2018-04-16T04:34:01.354Z,43.81
2018-04-16T04:35:01.265Z,43.88
2018-04-16T04:36:01.429Z,43.88
2018-04-16T04:37:01.329Z,43.91
2018-04-16T04:38:01.348Z,44.05
2018-04-16T04:39:01.345Z,43.88
2018-04-16T04:40:01.149Z,43.85
2018-04-16T04:41:01.244Z,43.98
2018-04-16T04:42:01.413Z,43.92
2018-04-16T04:43:01.266Z,43.94
2018-04-16T04:44:01.322Z,43.86
2018-04-16T04:45:01.321Z,43.84
2018-04-16T04:46:01.327Z,43.88
2018-04-16T04:47:01.530Z,43.81
2018-04-16T04:48:01.248Z,43.86
2018-04-16T04:49:01.169Z,43.86
2018-04-16T04:50:01.266Z,43.96
2018-04-16T04:51:01.300Z,43.91
2018-04-16T04:52:01.356Z,43.87
2018-04-16T04:53:01.339Z,43.94
2018-04-16T04:54:01.363Z,43.9
2018-04-16T04:55:01.203Z,43.97
2018-04-16T04:56:01.283Z,43.94
2018-04-16T04:57:01.122Z,43.95
2018-04-16T04:58:01.390Z,43.93
2018-04-16T04:59:01.373Z,43.99
2018-04-16T05:00:01.223Z,43.94
2018-04-16T05:01:01.513Z,43.96
2018-04-16T05:02:01.144Z,43.87
2018-04-16T05:03:01.330Z,43.91
2018-04-16T05:04:01.290Z,43.92
2018-04-16T05:05:01.173Z,44.07
2018-04-16T05:06:01.594Z,43.98
2018-04-16T05:07:01.463Z,44.11
2018-04-16T05:08:01.209Z,44
2018-04-16T05:09:01.314Z,43.88
2018-04-16T05:10:01.158Z,44.03
2018-04-16T05:11:01.281Z,43.98
2018-04-16T05:12:01.388Z,43.91
2018-04-16T05:13:01.362Z,43.93
2018-04-16T05:14:01.189Z,44.07
2018-04-16T05:15:01.255Z,43.91
2018-04-16T05:16:01.419Z,43.91
2018-04-16T05:17:01.284Z,43.98
2018-04-16T05:18:01.247Z,43.97
2018-04-16T05:19:01.402Z,43.92
2018-04-16T05:20:01.369Z,44.03
2018-04-16T05:21:01.353Z,43.98
2018-04-16T05:22:01.204Z,43.99
2018-04-16T05:23:01.257Z,43.96
2018-04-16T05:24:01.184Z,43.95
2018-04-16T05:25:01.404Z,43.97
2018-04-16T05:26:01.335Z,44.02
2018-04-16T05:27:01.113Z,43.95
2018-04-16T05:28:01.336Z,43.93
2018-04-16T05:29:01.271Z,44.02
2018-04-16T05:30:01.335Z,43.99
2018-04-16T05:31:01.229Z,43.95
2018-04-16T05:32:01.291Z,44.08
2018-04-16T05:33:01.217Z,43.94
2018-04-16T05:34:01.394Z,43.94
2018-04-16T05:35:01.321Z,43.94
2018-04-16T05:36:01.221Z,43.84
2018-04-16T05:37:01.302Z,43.93
2018-04-16T05:38:01.410Z,44.05
2018-04-16T05:39:01.339Z,44
2018-04-16T05:40:01.380Z,43.94
2018-04-16T05:41:01.283Z,43.87
2018-04-16T05:42:01.318Z,44
2018-04-16T05:43:01.356Z,44.04
2018-04-16T05:44:01.349Z,44.01
2018-04-16T05:45:01.238Z,44.05
2018-04-16T05:46:01.245Z,44
2018-04-16T05:47:01.298Z,44.07
2018-04-16T05:48:01.163Z,43.82
2018-04-16T05:49:01.382Z,44.04
2018-04-16T05:50:01.252Z,44.12
2018-04-16T05:51:01.162Z,43.99
2018-04-16T05:52:01.099Z,44.01
2018-04-16T05:53:01.320Z,44.31
2018-04-16T05:54:01.136Z,44.17
2018-04-16T05:55:01.180Z,44.16
2018-04-16T05:56:01.141Z,44.43
2018-04-16T05:57:01.199Z,44.19
2018-04-16T05:58:01.292Z,44.18
2018-04-16T05:59:01.272Z,44.32
2018-04-16T06:00:03.327Z,44.2
2018-04-16T06:01:01.298Z,44.23
2018-04-16T06:02:01.359Z,44.33
2018-04-16T06:03:01.316Z,44.19
2018-04-16T06:04:01.343Z,44.2
2018-04-16T06:05:01.299Z,44.35
2018-04-16T06:06:01.298Z,44.26
2018-04-16T06:07:01.162Z,44.25
2018-04-16T06:08:01.311Z,44.33
2018-04-16T06:09:01.309Z,44.21
2018-04-16T06:10:01.518Z,44.31
2018-04-16T06:11:01.161Z,44.26
2018-04-16T06:12:01.284Z,44.26
2018-04-16T06:13:01.102Z,44.23
2018-04-16T06:14:01.311Z,44.48
2018-04-16T06:15:01.280Z,44.2
2018-04-16T06:16:01.338Z,44.28
2018-04-16T06:17:01.176Z,44.25
2018-04-16T06:18:01.219Z,44.18
2018-04-16T06:19:01.475Z,44.11
2018-04-16T06:20:01.319Z,44.28
2018-04-16T06:21:01.222Z,44.02
2018-04-16T06:22:01.290Z,44.11
2018-04-16T06:23:01.312Z,43.92
2018-04-16T06:24:01.123Z,44.1
2018-04-16T06:25:01.280Z,44.09
2018-04-16T06:26:01.112Z,44.11
2018-04-16T06:27:01.300Z,44.05
2018-04-16T06:28:01.188Z,44.09
2018-04-16T06:29:01.354Z,44.18
2018-04-16T06:30:01.218Z,44.02
2018-04-16T06:31:01.241Z,44.09
2018-04-16T06:32:01.176Z,44.17
2018-04-16T06:33:01.333Z,44.07
2018-04-16T06:34:01.288Z,44.1
2018-04-16T06:35:01.281Z,44.19
2018-04-16T06:36:01.334Z,44.17
2018-04-16T06:37:01.319Z,44.12
2018-04-16T06:38:01.132Z,44.1
2018-04-16T06:39:01.282Z,44.12
2018-04-16T06:40:01.236Z,44.08
2018-04-16T06:41:01.252Z,44.12
2018-04-16T06:42:01.267Z,44.11
2018-04-16T06:43:01.202Z,44.09
2018-04-16T06:44:01.315Z,44.11
2018-04-16T06:45:01.301Z,44.11
2018-04-16T06:46:01.312Z,44.06
2018-04-16T06:47:01.203Z,44.12
2018-04-16T06:48:01.097Z,44.05
2018-04-16T06:49:01.227Z,43.99
2018-04-16T06:50:01.242Z,44
2018-04-16T06:51:01.268Z,44.12
2018-04-16T06:52:01.249Z,44.1
2018-04-16T06:53:01.152Z,44.12
2018-04-16T06:54:01.282Z,44.09
2018-04-16T06:55:01.561Z,43.98
2018-04-16T06:56:01.357Z,44.01
2018-04-16T06:57:01.119Z,44.01
2018-04-16T06:58:01.218Z,44
2018-04-16T06:59:01.123Z,44
2018-04-16T07:00:01.324Z,43.96
2018-04-16T07:01:01.372Z,43.93
2018-04-16T07:02:01.209Z,44.06
2018-04-16T07:03:01.073Z,43.92
2018-04-16T07:04:01.367Z,43.95
2018-04-16T07:05:01.389Z,43.95
2018-04-16T07:06:01.116Z,43.97
2018-04-16T07:07:01.317Z,43.93
2018-04-16T07:08:01.416Z,44
2018-04-16T07:09:01.206Z,44.03
2018-04-16T07:10:01.206Z,43.99
2018-04-16T07:11:01.071Z,44.07
2018-04-16T07:12:01.304Z,43.98
2018-04-16T07:13:01.132Z,43.89
2018-04-16T07:14:01.209Z,44.03
2018-04-16T07:15:01.288Z,44.04
2018-04-16T07:16:01.315Z,43.97
2018-04-16T07:17:01.249Z,44.05
2018-04-16T07:18:01.299Z,43.96
2018-04-16T07:19:01.221Z,43.9
2018-04-16T07:20:01.398Z,44.02
2018-04-16T07:21:01.214Z,43.99
2018-04-16T07:22:01.206Z,43.98
2018-04-16T07:23:01.331Z,43.95
2018-04-16T07:24:01.268Z,43.95
2018-04-16T07:25:01.259Z,43.9
2018-04-16T07:26:01.377Z,43.86
2018-04-16T07:27:01.251Z,43.85
2018-04-16T07:28:01.091Z,43.98
2018-04-16T07:29:01.287Z,43.86
2018-04-16T07:30:01.316Z,43.93
2018-04-16T07:31:01.111Z,43.89
2018-04-16T07:32:01.147Z,44.1
2018-04-16T07:33:01.238Z,43.95
2018-04-16T07:34:01.182Z,43.88
2018-04-16T07:35:01.319Z,43.91
2018-04-16T07:36:01.339Z,43.89
2018-04-16T07:37:01.476Z,43.89
2018-04-16T07:38:01.280Z,43.95
2018-04-16T07:39:01.390Z,43.86
2018-04-16T07:40:01.346Z,43.89
2018-04-16T07:41:01.231Z,43.98
2018-04-16T07:42:01.138Z,43.88
2018-04-16T07:43:01.265Z,43.89
2018-04-16T07:44:01.293Z,43.65
2018-04-16T07:45:01.384Z,43.85
2018-04-16T07:46:01.118Z,43.86
2018-04-16T07:47:01.169Z,43.99
2018-04-16T07:48:01.305Z,43.88
2018-04-16T07:49:01.384Z,43.86
2018-04-16T07:50:01.225Z,43.94
2018-04-16T07:51:01.306Z,43.88
2018-04-16T07:52:01.138Z,43.83
2018-04-16T07:53:01.055Z,43.92
2018-04-16T07:54:01.134Z,43.86
2018-04-16T07:55:01.243Z,43.81
2018-04-16T07:56:01.287Z,43.82
2018-04-16T07:57:01.120Z,43.87
2018-04-16T07:58:01.338Z,43.86
2018-04-16T07:59:01.223Z,43.86
2018-04-16T08:00:01.144Z,43.82
2018-04-16T08:01:01.276Z,43.79
2018-04-16T08:02:01.280Z,43.81
2018-04-16T08:03:01.268Z,43.81
2018-04-16T08:04:01.171Z,43.91
2018-04-16T08:05:01.172Z,43.9
2018-04-16T08:06:01.260Z,43.81
2018-04-16T08:07:01.179Z,43.78
2018-04-16T08:08:01.202Z,43.86
2018-04-16T08:09:01.214Z,43.76
2018-04-16T08:10:01.414Z,43.8
2018-04-16T08:11:01.602Z,43.75
2018-04-16T08:12:01.128Z,43.78
2018-04-16T08:13:01.370Z,43.81
2018-04-16T08:14:01.151Z,43.79
2018-04-16T08:15:01.179Z,43.77
2018-04-16T08:16:01.340Z,43.74
2018-04-16T08:17:01.258Z,43.74
2018-04-16T08:18:01.071Z,43.78
2018-04-16T08:19:01.183Z,43.8
2018-04-16T08:20:01.123Z,43.79
2018-04-16T08:21:03.286Z,43.75
2018-04-16T08:22:01.259Z,43.81
2018-04-16T08:23:01.121Z,43.86
2018-04-16T08:24:01.072Z,43.75
2018-04-16T08:25:01.178Z,43.76
2018-04-16T08:26:01.191Z,43.78
2018-04-16T08:27:01.416Z,43.74
2018-04-16T08:28:01.163Z,43.82
2018-04-16T08:29:01.229Z,43.73
2018-04-16T08:30:01.337Z,43.73
2018-04-16T08:31:01.134Z,43.69
2018-04-16T08:32:01.173Z,43.82
2018-04-16T08:33:01.089Z,43.82
2018-04-16T08:34:01.063Z,43.71
2018-04-16T08:35:01.183Z,43.72
2018-04-16T08:36:01.267Z,43.75
2018-04-16T08:37:01.152Z,43.7
2018-04-16T08:38:01.268Z,43.82
2018-04-16T08:39:01.282Z,43.77
2018-04-16T08:40:01.211Z,43.82
2018-04-16T08:41:01.182Z,43.79
2018-04-16T08:42:01.210Z,43.8
2018-04-16T08:43:01.350Z,43.78
2018-04-16T08:44:01.202Z,43.77
2018-04-16T08:45:01.297Z,43.67
2018-04-16T08:46:01.129Z,43.69
2018-04-16T08:47:01.141Z,43.7
2018-04-16T08:48:01.167Z,43.79
2018-04-16T08:49:01.217Z,43.82
2018-04-16T08:50:01.104Z,43.82
2018-04-16T08:51:01.091Z,43.72
2018-04-16T08:52:01.105Z,43.8
2018-04-16T08:53:01.070Z,43.86
2018-04-16T08:54:01.236Z,43.75
2018-04-16T08:55:01.144Z,43.71
2018-04-16T08:56:01.285Z,43.77
2018-04-16T08:57:01.136Z,43.74
2018-04-16T08:58:01.283Z,43.75
2018-04-16T08:59:01.077Z,43.68
2018-04-16T09:00:01.196Z,43.73
2018-04-16T09:01:01.189Z,43.69
2018-04-16T09:02:01.327Z,43.63
2018-04-16T09:03:01.287Z,43.7
2018-04-16T09:04:01.152Z,43.67
2018-04-16T09:05:01.281Z,43.68
2018-04-16T09:06:01.106Z,43.66
2018-04-16T09:07:01.188Z,43.69
2018-04-16T09:08:01.269Z,43.63
2018-04-16T09:09:01.379Z,43.69
2018-04-16T09:10:01.266Z,43.6
2018-04-16T09:11:01.275Z,43.69
2018-04-16T09:12:01.182Z,43.66
2018-04-16T09:13:01.233Z,43.79
2018-04-16T09:14:01.035Z,43.65
2018-04-16T09:15:01.112Z,43.61
2018-04-16T09:16:01.229Z,43.69
2018-04-16T09:17:01.063Z,43.7
2018-04-16T09:18:01.191Z,43.71
2018-04-16T09:19:01.200Z,43.6
2018-04-16T09:20:01.230Z,43.65
2018-04-16T09:21:01.237Z,43.6
2018-04-16T09:22:01.153Z,43.68
2018-04-16T09:23:01.244Z,43.68
2018-04-16T09:24:01.059Z,43.71
2018-04-16T09:25:01.170Z,43.56
2018-04-16T09:26:01.256Z,43.61
2018-04-16T09:27:01.254Z,43.67
2018-04-16T09:28:01.273Z,43.69
2018-04-16T09:29:01.171Z,43.68
2018-04-16T09:30:01.155Z,43.65
2018-04-16T09:31:01.132Z,43.72
2018-04-16T09:32:01.228Z,43.61
2018-04-16T09:33:01.433Z,43.65
2018-04-16T09:34:01.317Z,43.62
2018-04-16T09:35:01.090Z,43.66
2018-04-16T09:36:01.155Z,43.64
2018-04-16T09:37:01.100Z,43.64
2018-04-16T09:38:01.131Z,43.68
2018-04-16T09:39:01.056Z,43.61
2018-04-16T09:40:01.180Z,43.62
2018-04-16T09:41:01.224Z,43.7
2018-04-16T09:42:01.125Z,43.77
2018-04-16T09:43:01.060Z,43.73
2018-04-16T09:44:01.184Z,43.87
2018-04-16T09:45:01.232Z,43.87
2018-04-16T09:46:01.016Z,44.62
2018-04-16T09:47:01.160Z,44.27
2018-04-16T09:48:01.152Z,44.39
2018-04-16T09:49:01.074Z,44.51
2018-04-16T09:50:01.234Z,44.3
2018-04-16T09:51:01.160Z,44.47
2018-04-16T09:52:01.110Z,44.54
2018-04-16T09:53:01.064Z,44.54
2018-04-16T09:54:01.338Z,44.49
2018-04-16T09:55:01.235Z,44.64
2018-04-16T09:56:01.204Z,44.55
2018-04-16T09:57:01.130Z,44.47
2018-04-16T09:58:01.285Z,44.52
2018-04-16T09:59:01.157Z,44.45
2018-04-16T10:00:01.280Z,44.37
2018-04-16T10:01:01.280Z,44.47
2018-04-16T10:02:01.179Z,44.32
2018-04-16T10:03:01.235Z,44.37
2018-04-16T10:04:01.283Z,44.42
2018-04-16T10:05:01.062Z,44.34
2018-04-16T10:06:01.223Z,44.36
2018-04-16T10:07:01.280Z,44.55
2018-04-16T10:08:01.081Z,44.48
2018-04-16T10:09:01.275Z,44.54
2018-04-16T10:10:01.212Z,44.61
2018-04-16T10:11:01.108Z,44.67
2018-04-16T10:12:01.133Z,44.66
2018-04-16T10:13:01.276Z,44.71
2018-04-16T10:14:01.069Z,44.7
2018-04-16T10:15:01.216Z,44.71
2018-04-16T10:16:01.234Z,44.75
2018-04-16T10:17:01.190Z,44.48
2018-04-16T10:18:01.310Z,44.49
2018-04-16T10:19:01.184Z,44.41
2018-04-16T10:20:01.353Z,44.36
2018-04-16T10:21:01.228Z,44.41
2018-04-16T10:22:01.142Z,44.41
2018-04-16T10:23:01.370Z,44.39
2018-04-16T10:24:01.389Z,44.32
2018-04-16T10:25:01.198Z,44.42
2018-04-16T10:26:01.061Z,44.33
2018-04-16T10:27:01.116Z,44.42
2018-04-16T10:28:01.176Z,44.31
2018-04-16T10:29:01.068Z,44.33
2018-04-16T10:30:01.132Z,44.3
2018-04-16T10:31:01.232Z,44.3
2018-04-16T10:32:01.163Z,44.29
2018-04-16T10:33:01.233Z,44.26
2018-04-16T10:34:01.250Z,44.28
2018-04-16T10:35:01.096Z,44.25
2018-04-16T10:36:01.027Z,44.23
2018-04-16T10:37:01.204Z,44.25
2018-04-16T10:38:01.171Z,44.17
2018-04-16T10:39:01.085Z,44.19
2018-04-16T10:40:01.065Z,44.24
2018-04-16T10:41:01.283Z,44.16
2018-04-16T10:42:03.252Z,44.19
2018-04-16T10:43:01.122Z,44.21
2018-04-16T10:44:01.096Z,44.16
2018-04-16T10:45:01.148Z,44.18
2018-04-16T10:46:01.060Z,44.16
2018-04-16T10:47:01.142Z,44.12
2018-04-16T10:48:01.244Z,44.08
2018-04-16T10:49:01.227Z,44.15
2018-04-16T10:50:01.242Z,44.08
2018-04-16T10:51:01.263Z,44.12
2018-04-16T10:52:01.060Z,44.11
2018-04-16T10:53:01.133Z,44.09
2018-04-16T10:54:00.993Z,44.14
2018-04-16T10:55:01.105Z,44.19
2018-04-16T10:56:01.229Z,44.1
2018-04-16T10:57:01.151Z,44.1
2018-04-16T10:58:01.424Z,44.12
2018-04-16T10:59:01.153Z,44.04
2018-04-16T11:00:01.111Z,44.03
2018-04-16T11:01:01.222Z,44.06
2018-04-16T11:02:01.191Z,44.01
2018-04-16T11:03:01.148Z,44.05
2018-04-16T11:04:01.142Z,44.1
2018-04-16T11:05:01.183Z,43.98
2018-04-16T11:06:01.263Z,44.05
2018-04-16T11:07:01.033Z,43.88
2018-04-16T11:08:01.132Z,43.93
2018-04-16T11:09:01.207Z,43.96
2018-04-16T11:10:01.316Z,43.99
2018-04-16T11:11:01.059Z,43.93
2018-04-16T11:12:01.165Z,43.95
2018-04-16T11:13:01.220Z,43.99
2018-04-16T11:14:01.143Z,43.94
2018-04-16T11:15:01.270Z,43.93
2018-04-16T11:16:01.280Z,43.99
2018-04-16T11:17:01.284Z,43.91
2018-04-16T11:18:01.240Z,43.98
2018-04-16T11:19:01.184Z,43.96
2018-04-16T11:20:01.026Z,43.86
2018-04-16T11:21:01.163Z,43.95
2018-04-16T11:22:01.240Z,44
2018-04-16T11:23:01.091Z,43.87
2018-04-16T11:24:01.237Z,43.96
2018-04-16T11:25:01.093Z,43.94
2018-04-16T11:26:01.173Z,43.87
2018-04-16T11:27:01.112Z,43.89
2018-04-16T11:28:01.103Z,43.9
2018-04-16T11:29:01.165Z,43.91
2018-04-16T11:30:01.101Z,43.89
2018-04-16T11:31:01.101Z,43.89
2018-04-16T11:32:01.116Z,43.86
2018-04-16T11:33:01.188Z,43.91
2018-04-16T11:34:01.162Z,43.94
2018-04-16T11:35:01.240Z,43.83
2018-04-16T11:36:01.282Z,43.88
2018-04-16T11:37:01.056Z,43.91
2018-04-16T11:38:01.219Z,43.86
2018-04-16T11:39:01.220Z,43.85
2018-04-16T11:40:01.094Z,43.82
2018-04-16T11:41:01.125Z,43.79
2018-04-16T11:42:01.120Z,43.86
2018-04-16T11:43:01.100Z,43.91
2018-04-16T11:44:01.166Z,43.81
2018-04-16T11:45:02.087Z,43.86
2018-04-16T11:46:01.057Z,43.84
2018-04-16T11:47:01.130Z,43.78
2018-04-16T11:48:01.187Z,43.84
2018-04-16T11:49:01.100Z,43.83
2018-04-16T11:50:01.058Z,43.84
2018-04-16T11:51:01.159Z,44.09
2018-04-16T11:52:01.234Z,44.15
2018-04-16T11:53:01.303Z,44.02
2018-04-16T11:54:01.219Z,43.91
2018-04-16T11:55:01.275Z,43.92
2018-04-16T11:56:01.246Z,43.83
2018-04-16T11:57:01.160Z,43.95
2018-04-16T11:58:01.119Z,43.92
2018-04-16T11:59:01.117Z,43.87
2018-04-16T12:00:01.081Z,43.85
2018-04-16T12:01:01.085Z,43.82
2018-04-16T12:02:01.024Z,43.83
2018-04-16T12:03:01.272Z,43.85
2018-04-16T12:04:01.115Z,43.9
2018-04-16T12:05:01.198Z,43.82
2018-04-16T12:06:01.050Z,43.85
2018-04-16T12:07:01.084Z,43.92
2018-04-16T12:08:01.228Z,43.62
2018-04-16T12:09:01.125Z,43.88
2018-04-16T12:10:01.010Z,43.88
2018-04-16T12:11:01.245Z,43.79
2018-04-16T12:12:01.101Z,43.87
2018-04-16T12:13:01.145Z,43.81
2018-04-16T12:14:01.123Z,43.74
2018-04-16T12:15:01.261Z,43.77
2018-04-16T12:16:01.196Z,43.82
2018-04-16T12:17:01.121Z,43.8
2018-04-16T12:18:01.162Z,43.88
2018-04-16T12:19:01.198Z,43.87
2018-04-16T12:20:01.201Z,43.79
2018-04-16T12:21:01.123Z,43.78
2018-04-16T12:22:01.064Z,43.78
2018-04-16T12:23:01.132Z,43.75
2018-04-16T12:24:01.001Z,43.8
2018-04-16T12:25:01.075Z,43.81
2018-04-16T12:26:01.189Z,43.74
2018-04-16T12:27:01.203Z,43.85
2018-04-16T12:28:01.227Z,43.76
2018-04-16T12:29:01.020Z,43.58
2018-04-16T12:30:01.199Z,43.83
2018-04-16T12:31:01.203Z,43.73
2018-04-16T12:32:00.973Z,43.66
2018-04-16T12:33:01.195Z,43.78
2018-04-16T12:34:01.140Z,43.73
2018-04-16T12:35:01.066Z,43.73
2018-04-16T12:36:01.157Z,43.76
2018-04-16T12:37:01.066Z,43.74
2018-04-16T12:38:01.288Z,43.77
2018-04-16T12:39:01.074Z,43.8
2018-04-16T12:40:01.087Z,43.75
2018-04-16T12:41:01.341Z,43.7
2018-04-16T12:42:01.317Z,43.76
2018-04-16T12:43:01.265Z,43.75
2018-04-16T12:44:01.171Z,43.67
2018-04-16T12:45:01.079Z,43.71
2018-04-16T12:46:01.156Z,43.72
2018-04-16T12:47:01.229Z,43.72
2018-04-16T12:48:01.117Z,43.77
2018-04-16T12:49:01.149Z,43.78
2018-04-16T12:50:01.444Z,43.61
2018-04-16T12:51:01.086Z,43.74
2018-04-16T12:52:01.155Z,43.77
2018-04-16T12:53:01.201Z,43.7
2018-04-16T12:54:01.214Z,43.72
2018-04-16T12:55:01.269Z,43.74
2018-04-16T12:56:01.053Z,43.65